createdAt,value
2023-03-20T00:01:22.371Z,18.83
2023-03-20T00:03:49.225Z,18.05
2023-03-20T00:06:28.922Z,18.42
2023-03-20T00:08:57.309Z,15.98
2023-03-20T00:11:27.020Z,16.67
2023-03-20T00:14:02.467Z,18.08
2023-03-20T00:16:36.059Z,18.58
2023-03-20T00:19:03.899Z,13.07
2023-03-20T00:21:31.457Z,16.13
2023-03-20T00:23:58.860Z,17.75
2023-03-20T00:26:33.539Z,20.25
2023-03-20T00:29:03.869Z,20.45
2023-03-20T00:31:37.372Z,16.55
2023-03-20T00:34:12.108Z,19.17
2023-03-20T00:36:38.871Z,21.10
2023-03-20T00:39:05.976Z,19.10
2023-03-20T00:41:45.058Z,20.88
2023-03-20T00:44:41.915Z,23.35
2023-03-20T00:47:19.760Z,23.13
2023-03-20T00:49:50.695Z,25.15
2023-03-20T00:52:19.397Z,24.63
2023-03-20T00:54:46.153Z,28.67
2023-03-20T00:57:30.451Z,32.35
2023-03-20T01:00:01.598Z,33.05
2023-03-20T01:02:30.992Z,33.97
2023-03-20T01:04:58.336Z,36.20
2023-03-20T01:07:25.190Z,32.80
2023-03-20T01:09:52.652Z,35.30
2023-03-20T01:12:19.768Z,34.30
2023-03-20T01:14:52.334Z,39.80
2023-03-20T01:17:22.560Z,39.85
2023-03-20T01:19:49.484Z,40.72
2023-03-20T01:22:18.123Z,41.00
2023-03-20T01:24:45.442Z,42.15
2023-03-20T01:27:16.151Z,38.72
2023-03-20T01:29:43.353Z,40.10
2023-03-20T01:32:17.845Z,40.58
2023-03-20T01:34:44.673Z,39.00
2023-03-20T01:37:17.914Z,35.70
2023-03-20T01:39:44.756Z,34.30
2023-03-20T01:42:16.032Z,36.22
2023-03-20T01:44:43.332Z,35.85
2023-03-20T01:47:24.829Z,35.47
2023-03-20T01:50:29.908Z,35.35
2023-03-20T01:53:13.834Z,38.53
2023-03-20T01:55:43.598Z,39.47
2023-03-20T01:58:20.118Z,39.65
2023-03-20T02:00:48.992Z,42.60
2023-03-20T02:03:16.853Z,39.17
2023-03-20T02:05:44.645Z,42.95
2023-03-20T02:08:30.679Z,42.17
2023-03-20T02:10:59.708Z,46.67
2023-03-20T02:13:31.700Z,42.08
2023-03-20T02:16:11.181Z,45.05
2023-03-20T02:18:40.266Z,44.90
2023-03-20T02:21:57.533Z,44.55
2023-03-20T02:24:59.931Z,44.72
2023-03-20T02:28:33.243Z,41.72
2023-03-20T02:31:47.186Z,43.30
2023-03-20T02:34:43.889Z,41.67
2023-03-20T02:38:28.468Z,42.67
2023-03-20T02:41:42.059Z,41.20
2023-03-20T02:44:19.200Z,38.45
2023-03-20T02:47:20.222Z,37.75
2023-03-20T02:50:48.094Z,32.97
2023-03-20T02:53:34.482Z,37.50
2023-03-20T02:56:12.521Z,38.15
2023-03-20T02:59:26.942Z,36.72
2023-03-20T03:02:04.290Z,31.98
2023-03-20T03:04:38.461Z,30.98
2023-03-20T03:07:09.284Z,32.67
2023-03-20T03:09:53.271Z,29.40
2023-03-20T03:12:29.918Z,29.65
2023-03-20T03:15:07.874Z,31.63
2023-03-20T03:17:37.936Z,27.17
2023-03-20T03:20:19.016Z,29.98
2023-03-20T03:22:46.004Z,25.08
2023-03-20T03:25:13.782Z,29.83
2023-03-20T03:27:44.280Z,27.23
2023-03-20T03:30:18.451Z,26.83
2023-03-20T03:33:04.874Z,24.50
2023-03-20T03:35:31.711Z,22.67
2023-03-20T03:38:13.317Z,21.98
2023-03-20T03:41:23.759Z,20.27
2023-03-20T03:44:12.887Z,19.73
2023-03-20T03:46:51.493Z,19.55
2023-03-20T03:49:31.079Z,21.73
2023-03-20T03:52:05.779Z,20.77
2023-03-20T03:54:40.424Z,21.30
2023-03-20T03:57:10.933Z,21.13
2023-03-20T03:59:44.043Z,22.50
2023-03-20T04:02:12.066Z,22.33
2023-03-20T04:04:43.940Z,19.40
2023-03-20T04:07:10.881Z,20.92
2023-03-20T04:09:38.036Z,17.58
2023-03-20T04:12:05.774Z,21.95
2023-03-20T04:14:32.541Z,17.25
2023-03-20T04:16:59.304Z,21.45
2023-03-20T04:19:26.102Z,19.23
2023-03-20T04:21:55.148Z,22.00
2023-03-20T04:24:22.001Z,22.58
2023-03-20T04:26:48.804Z,19.10
2023-03-20T04:29:15.913Z,22.45
2023-03-20T04:31:42.737Z,19.75
2023-03-20T04:34:09.540Z,21.15
2023-03-20T04:36:36.338Z,19.35
2023-03-20T04:39:03.108Z,22.80
2023-03-20T04:41:29.877Z,20.98
2023-03-20T04:43:56.660Z,20.73
2023-03-20T04:46:23.528Z,21.65
2023-03-20T04:48:50.367Z,21.23
2023-03-20T04:51:17.196Z,19.80
2023-03-20T04:53:43.977Z,18.95
2023-03-20T04:56:10.856Z,20.77
2023-03-20T04:58:37.736Z,19.08
2023-03-20T05:01:04.627Z,19.73
2023-03-20T05:03:31.628Z,25.25
2023-03-20T05:05:58.787Z,27.05
2023-03-20T05:08:25.852Z,24.67
2023-03-20T05:10:52.903Z,25.75
2023-03-20T05:13:19.776Z,23.25
2023-03-20T05:15:46.553Z,23.25
2023-03-20T05:18:13.415Z,29.13
2023-03-20T05:20:40.419Z,24.50
2023-03-20T05:23:07.379Z,27.27
2023-03-20T05:25:34.330Z,26.92
2023-03-20T05:28:01.295Z,26.88
2023-03-20T05:30:28.421Z,27.33
2023-03-20T05:32:55.277Z,26.20
2023-03-20T05:35:22.176Z,26.83
2023-03-20T05:37:48.974Z,27.98
2023-03-20T05:40:16.862Z,30.45
2023-03-20T05:42:44.824Z,32.83
2023-03-20T05:45:11.774Z,30.23
2023-03-20T05:47:38.586Z,27.42
2023-03-20T05:50:06.207Z,30.92
2023-03-20T05:52:32.967Z,30.38
2023-03-20T05:54:59.747Z,32.92
2023-03-20T05:57:27.045Z,29.35
2023-03-20T05:59:53.863Z,30.30
2023-03-20T06:02:20.698Z,34.75
2023-03-20T06:04:47.509Z,34.17
2023-03-20T06:07:14.313Z,34.55
2023-03-20T06:09:41.330Z,30.90
2023-03-20T06:12:08.162Z,37.28
2023-03-20T06:14:35.125Z,33.22
2023-03-20T06:17:01.887Z,30.70
2023-03-20T06:19:28.681Z,35.72
2023-03-20T06:21:55.525Z,35.85
2023-03-20T06:24:22.321Z,35.10
2023-03-20T06:26:50.136Z,37.05
2023-03-20T06:29:17.243Z,36.65
2023-03-20T06:31:44.520Z,34.55
2023-03-20T06:34:11.473Z,32.30
2023-03-20T06:36:38.318Z,33.67
2023-03-20T06:39:05.332Z,33.05
2023-03-20T06:41:34.926Z,33.40
2023-03-20T06:44:03.657Z,35.35
2023-03-20T06:46:30.688Z,33.53
2023-03-20T06:48:57.506Z,33.75
2023-03-20T06:51:24.269Z,31.42
2023-03-20T06:53:51.112Z,34.65
2023-03-20T06:56:18.240Z,35.53
2023-03-20T06:58:45.190Z,36.10
2023-03-20T07:01:15.024Z,37.08
2023-03-20T07:03:42.022Z,33.88
2023-03-20T07:06:09.732Z,34.85
2023-03-20T07:08:36.857Z,34.75
2023-03-20T07:11:04.274Z,32.40
2023-03-20T07:13:32.548Z,35.08
2023-03-20T07:16:04.858Z,34.22
2023-03-20T07:18:32.361Z,33.83
2023-03-20T07:21:04.015Z,35.22
2023-03-20T07:23:31.613Z,33.38
2023-03-20T07:25:59.327Z,27.92
2023-03-20T07:28:26.987Z,29.23
2023-03-20T07:30:54.088Z,27.80
2023-03-20T07:33:20.913Z,31.05
2023-03-20T07:35:52.080Z,24.88
2023-03-20T07:38:18.847Z,24.63
2023-03-20T07:40:45.738Z,24.15
2023-03-20T07:43:12.494Z,23.27
2023-03-20T07:45:39.625Z,20.30
2023-03-20T07:48:06.705Z,24.08
2023-03-20T07:50:33.748Z,17.63
2023-03-20T07:53:00.616Z,21.13
2023-03-20T07:55:27.360Z,17.25
2023-03-20T07:57:54.194Z,17.05
2023-03-20T08:00:21.378Z,22.40
2023-03-20T08:02:48.432Z,18.95
2023-03-20T08:05:15.390Z,15.02
2023-03-20T08:07:42.443Z,18.55
2023-03-20T08:10:10.132Z,16.95
2023-03-20T08:12:36.951Z,15.55
2023-03-20T08:15:04.003Z,17.45
2023-03-20T08:17:31.002Z,16.45
2023-03-20T08:19:57.793Z,15.93
2023-03-20T08:22:24.549Z,18.90
2023-03-20T08:24:51.327Z,18.17
2023-03-20T08:27:18.080Z,17.55
2023-03-20T08:29:44.903Z,19.10
2023-03-20T08:32:11.700Z,15.93
2023-03-20T08:34:38.496Z,18.40
2023-03-20T08:37:05.387Z,18.70
2023-03-20T08:39:33.224Z,19.58
2023-03-20T08:42:01.192Z,17.02
2023-03-20T08:44:28.353Z,18.60
2023-03-20T08:46:55.148Z,19.48
2023-03-20T08:49:22.040Z,17.05
2023-03-20T08:51:48.858Z,18.02
2023-03-20T08:54:16.199Z,17.65
2023-03-20T08:56:42.966Z,19.48
2023-03-20T08:59:09.769Z,18.88
2023-03-20T09:01:48.676Z,23.15
2023-03-20T09:04:16.417Z,22.10
2023-03-20T09:06:43.198Z,22.02
2023-03-20T09:09:09.982Z,19.77
2023-03-20T09:11:37.243Z,19.65
2023-03-20T09:14:04.026Z,18.00
2023-03-20T09:16:30.958Z,18.60
2023-03-20T09:18:57.797Z,15.73
2023-03-20T09:21:24.589Z,16.13
2023-03-20T09:23:51.444Z,16.58
2023-03-20T09:26:18.252Z,15.65
2023-03-20T09:28:45.268Z,15.68
2023-03-20T09:31:12.132Z,14.50
2023-03-20T09:33:38.956Z,15.57
2023-03-20T09:36:08.311Z,11.88
2023-03-20T09:38:35.170Z,14.52
2023-03-20T09:41:05.153Z,14.35
2023-03-20T09:44:14.004Z,13.30
2023-03-20T09:47:20.238Z,14.00
2023-03-20T09:50:24.098Z,14.15
2023-03-20T09:53:02.688Z,12.73
2023-03-20T09:55:40.203Z,15.02
2023-03-20T09:58:16.142Z,16.55
2023-03-20T10:00:46.293Z,16.42
2023-03-20T10:03:27.017Z,14.93
2023-03-20T10:06:04.714Z,15.75
2023-03-20T10:08:38.017Z,17.77
2023-03-20T10:11:57.233Z,16.60
2023-03-20T10:14:54.843Z,16.40
2023-03-20T10:17:58.548Z,14.60
2023-03-20T10:20:50.696Z,16.73
2023-03-20T10:23:42.528Z,16.40
2023-03-20T10:26:20.205Z,15.73
2023-03-20T10:29:01.977Z,14.77
2023-03-20T10:32:05.834Z,13.50
2023-03-20T10:35:04.580Z,13.32
2023-03-20T10:38:14.042Z,13.88
2023-03-20T10:40:42.151Z,12.32
2023-03-20T10:43:22.065Z,13.25
2023-03-20T10:46:10.404Z,13.18
2023-03-20T10:49:01.899Z,10.52
2023-03-20T10:51:49.902Z,12.13
2023-03-20T10:54:34.599Z,12.00
2023-03-20T10:57:05.115Z,9.90
2023-03-20T10:59:44.453Z,11.07
2023-03-20T11:02:13.279Z,8.15
2023-03-20T11:04:40.624Z,8.90
2023-03-20T11:07:25.954Z,7.95
2023-03-20T11:10:04.805Z,10.13
2023-03-20T11:12:38.344Z,8.77
2023-03-20T11:15:33.400Z,8.60
2023-03-20T11:20:46.972Z,8.25
2023-03-20T11:23:21.281Z,7.80
2023-03-20T11:26:01.051Z,6.82
2023-03-20T11:28:41.147Z,9.45
2023-03-20T11:31:20.371Z,12.30
2023-03-20T11:34:17.485Z,9.80
2023-03-20T11:37:10.036Z,7.30
2023-03-20T11:39:39.839Z,8.45
2023-03-20T11:42:24.571Z,6.28
2023-03-20T11:45:03.282Z,6.10
2023-03-20T11:47:34.719Z,6.03
2023-03-20T11:50:07.489Z,5.47
2023-03-20T11:52:39.103Z,5.97
2023-03-20T11:55:24.732Z,5.35
2023-03-20T11:57:56.427Z,4.78
2023-03-20T12:00:27.221Z,6.70
2023-03-20T12:02:54.063Z,5.97
2023-03-20T12:05:36.673Z,4.63
2023-03-20T12:08:15.578Z,5.82
2023-03-20T12:10:46.142Z,5.65
2023-03-20T12:13:29.728Z,5.85
2023-03-20T12:16:05.302Z,4.20
2023-03-20T12:18:49.612Z,5.30
2023-03-20T12:21:30.872Z,3.88
2023-03-20T12:24:10.890Z,3.63
2023-03-20T12:27:17.399Z,4.03
2023-03-20T12:30:10.776Z,4.97
2023-03-20T12:32:54.069Z,6.45
2023-03-20T12:35:34.651Z,5.93
2023-03-20T12:38:01.948Z,4.43
2023-03-20T12:40:46.912Z,7.00
2023-03-20T12:43:27.421Z,7.40
2023-03-20T12:46:17.644Z,6.38
2023-03-20T12:48:59.481Z,9.45
2023-03-20T12:51:49.124Z,4.63
2023-03-20T12:54:56.151Z,4.18
2023-03-20T12:57:35.049Z,5.60
2023-03-20T13:00:21.320Z,3.75
2023-03-20T13:03:14.097Z,5.45
2023-03-20T13:06:00.823Z,3.08
2023-03-20T13:09:11.246Z,4.25
2023-03-20T13:11:54.380Z,5.63
2023-03-20T13:15:14.498Z,4.47
2023-03-20T13:17:56.475Z,6.43
2023-03-20T13:20:53.004Z,5.15
2023-03-20T13:23:31.591Z,4.95
2023-03-20T13:26:23.470Z,4.57
2023-03-20T13:29:19.205Z,4.28
2023-03-20T13:32:03.232Z,3.95
2023-03-20T13:35:02.451Z,4.20
2023-03-20T13:37:42.113Z,3.72
2023-03-20T13:40:22.325Z,3.95
2023-03-20T13:43:13.649Z,3.85
2023-03-20T13:45:42.697Z,6.22
2023-03-20T13:48:37.392Z,5.85
2023-03-20T13:51:35.738Z,5.93
2023-03-20T13:54:28.278Z,9.35
2023-03-20T13:57:25.984Z,5.45
2023-03-20T14:00:18.607Z,4.18
2023-03-20T14:03:16.078Z,5.28
2023-03-20T14:05:44.041Z,2.25
2023-03-20T14:08:32.551Z,6.00
2023-03-20T14:11:08.645Z,4.88
2023-03-20T14:13:36.257Z,5.70
2023-03-20T14:16:08.060Z,5.43
2023-03-20T14:18:36.237Z,6.30
2023-03-20T14:21:13.562Z,5.00
2023-03-20T14:23:46.950Z,5.13
2023-03-20T14:26:20.719Z,3.58
2023-03-20T14:29:09.209Z,5.28
2023-03-20T14:31:42.088Z,5.55
2023-03-20T14:34:20.786Z,4.15
2023-03-20T14:37:03.564Z,6.43
2023-03-20T14:39:44.902Z,3.38
2023-03-20T14:43:05.042Z,3.88
2023-03-20T14:45:58.520Z,7.38
2023-03-20T14:48:35.263Z,6.60
2023-03-20T14:51:25.698Z,6.10
2023-03-20T14:54:21.426Z,6.90
2023-03-20T14:56:52.456Z,5.72
2023-03-20T14:59:23.888Z,9.82
2023-03-20T15:01:57.701Z,3.80
2023-03-20T15:04:41.121Z,5.20
2023-03-20T15:07:25.908Z,4.65
2023-03-20T15:09:59.417Z,2.97
2023-03-20T15:12:36.360Z,7.05
2023-03-20T15:15:07.563Z,7.47
2023-03-20T15:17:41.064Z,6.70
2023-03-20T15:20:18.680Z,5.93
2023-03-20T15:22:58.142Z,5.63
2023-03-20T15:25:40.881Z,6.38
2023-03-20T15:28:12.564Z,3.85
2023-03-20T15:30:40.875Z,4.82
2023-03-20T15:33:16.214Z,4.22
2023-03-20T15:35:43.151Z,4.80
2023-03-20T15:38:16.382Z,5.53
2023-03-20T15:40:50.974Z,7.38
2023-03-20T15:43:24.471Z,3.55
2023-03-20T15:46:02.828Z,5.55
2023-03-20T15:48:37.068Z,4.57
2023-03-20T15:51:05.509Z,9.07
2023-03-20T15:53:39.001Z,7.43
2023-03-20T15:56:20.699Z,8.47
2023-03-20T15:58:52.319Z,6.25
2023-03-20T16:01:23.070Z,6.43
2023-03-20T16:03:51.942Z,5.97
2023-03-20T16:06:21.812Z,6.63
2023-03-20T16:09:07.003Z,3.03
2023-03-20T16:11:39.035Z,7.47
2023-03-20T16:14:10.650Z,5.55
2023-03-20T16:16:37.802Z,4.03
2023-03-20T16:19:12.283Z,7.78
2023-03-20T16:24:16.124Z,7.63
2023-03-20T16:26:46.632Z,6.65
2023-03-20T16:29:14.981Z,6.85
2023-03-20T16:31:50.011Z,3.78
2023-03-20T16:34:25.611Z,4.28
2023-03-20T16:36:59.026Z,4.20
2023-03-20T16:39:31.087Z,6.23
2023-03-20T16:42:10.796Z,6.82
2023-03-20T16:44:41.306Z,5.10
2023-03-20T16:47:20.232Z,4.97
2023-03-20T16:50:05.712Z,3.55
2023-03-20T16:52:39.353Z,8.85
2023-03-20T16:55:13.851Z,9.13
2023-03-20T16:57:41.754Z,5.50
2023-03-20T17:00:27.427Z,3.72
2023-03-20T17:03:13.191Z,5.93
2023-03-20T17:05:59.850Z,9.00
2023-03-20T17:08:42.074Z,5.35
2023-03-20T17:11:37.240Z,4.03
2023-03-20T17:14:04.739Z,4.30
2023-03-20T17:16:33.260Z,4.18
2023-03-20T17:19:13.553Z,6.95
2023-03-20T17:21:41.014Z,9.70
2023-03-20T17:24:07.911Z,6.00
2023-03-20T17:26:34.711Z,6.72
2023-03-20T17:29:01.553Z,6.97
2023-03-20T17:31:28.439Z,4.75
2023-03-20T17:33:55.337Z,5.75
2023-03-20T17:36:28.244Z,8.30
2023-03-20T17:38:56.564Z,7.32
2023-03-20T17:41:24.784Z,7.00
2023-03-20T17:43:52.129Z,8.02
2023-03-20T17:46:20.883Z,5.47
2023-03-20T17:48:49.088Z,6.13
2023-03-20T17:51:16.184Z,7.40
2023-03-20T17:53:43.685Z,6.60
2023-03-20T17:56:15.971Z,7.97
2023-03-20T17:58:45.867Z,6.25
2023-03-20T18:01:13.476Z,8.45
2023-03-20T18:03:41.006Z,7.32
2023-03-20T18:06:22.046Z,10.57
2023-03-20T18:08:48.840Z,6.25
2023-03-20T18:11:15.758Z,7.53
2023-03-20T18:13:42.758Z,6.28
2023-03-20T18:16:20.858Z,9.27
2023-03-20T18:18:47.982Z,8.05
2023-03-20T18:21:16.610Z,11.35
2023-03-20T18:23:44.886Z,7.25
2023-03-20T18:26:24.454Z,7.25
2023-03-20T18:28:54.437Z,7.95
2023-03-20T18:31:21.785Z,6.22
2023-03-20T18:33:51.163Z,7.35
2023-03-20T18:36:22.118Z,7.57
2023-03-20T18:38:49.706Z,10.10
2023-03-20T18:41:16.851Z,5.10
2023-03-20T18:43:44.603Z,8.02
2023-03-20T18:46:17.340Z,6.50
2023-03-20T18:48:44.646Z,6.78
2023-03-20T18:51:12.088Z,7.85
2023-03-20T18:53:41.055Z,4.90
2023-03-20T18:56:23.465Z,9.45
2023-03-20T18:58:50.333Z,4.75
2023-03-20T19:01:17.344Z,8.40
2023-03-20T19:03:46.236Z,6.38
2023-03-20T19:06:22.810Z,7.78
2023-03-20T19:08:51.842Z,7.72
2023-03-20T19:11:21.505Z,7.93
2023-03-20T19:13:53.554Z,7.68
2023-03-20T19:18:58.898Z,7.35
2023-03-20T19:21:28.629Z,8.80
2023-03-20T19:23:58.611Z,7.85
2023-03-20T19:26:27.876Z,6.13
2023-03-20T19:28:57.770Z,5.80
2023-03-20T19:31:25.852Z,8.38
2023-03-20T19:33:53.080Z,10.50
2023-03-20T19:36:31.406Z,6.43
2023-03-20T19:39:00.710Z,6.97
2023-03-20T19:41:29.174Z,7.43
2023-03-20T19:43:56.926Z,6.55
2023-03-20T19:46:39.164Z,9.57
2023-03-20T19:49:17.738Z,6.95
2023-03-20T19:51:45.060Z,7.88
2023-03-20T19:54:11.842Z,8.68
2023-03-20T19:56:38.688Z,5.00
2023-03-20T19:59:05.859Z,7.55
2023-03-20T20:01:32.747Z,7.55
2023-03-20T20:04:02.520Z,9.10
2023-03-20T20:06:32.089Z,9.55
2023-03-20T20:09:01.003Z,9.48
2023-03-20T20:11:27.994Z,12.35
2023-03-20T20:14:06.743Z,7.53
2023-03-20T20:16:42.996Z,9.95
2023-03-20T20:19:10.231Z,9.10
2023-03-20T20:24:24.307Z,8.43
2023-03-20T20:26:59.912Z,8.45
2023-03-20T20:29:34.147Z,12.82
2023-03-20T20:32:01.209Z,9.43
2023-03-20T20:40:05.076Z,9.68
2023-03-20T20:42:32.060Z,9.40
2023-03-20T20:44:58.836Z,9.82
2023-03-20T20:47:25.603Z,11.10
2023-03-20T20:49:52.373Z,13.77
2023-03-20T20:52:19.784Z,12.63
2023-03-20T20:54:46.635Z,10.57
2023-03-20T20:57:14.235Z,12.95
2023-03-20T20:59:41.289Z,14.38
2023-03-20T21:02:15.578Z,14.30
2023-03-20T21:07:12.339Z,11.05
2023-03-20T21:09:40.426Z,13.77
2023-03-20T21:12:10.263Z,18.90
2023-03-20T21:14:37.793Z,12.90
2023-03-20T21:17:06.401Z,17.08
2023-03-20T21:19:36.983Z,16.60
2023-03-20T21:22:05.678Z,15.15
2023-03-20T21:24:34.632Z,20.02
2023-03-20T21:27:07.958Z,15.57
2023-03-20T21:29:34.866Z,18.15
2023-03-20T21:32:01.811Z,15.30
2023-03-20T21:34:31.696Z,12.48
2023-03-20T21:37:00.184Z,14.35
2023-03-20T21:39:30.344Z,13.00
2023-03-20T21:41:58.366Z,16.60
2023-03-20T21:45:20.750Z,16.65
2023-03-20T21:51:09.850Z,14.55
2023-03-20T21:56:23.657Z,18.95
2023-03-20T22:10:11.033Z,21.17
2023-03-20T22:13:00.409Z,18.83
2023-03-20T22:18:42.535Z,16.52
2023-03-20T22:21:39.076Z,19.17
2023-03-20T22:29:45.253Z,24.30
2023-03-20T22:38:06.035Z,22.88
2023-03-20T22:43:57.166Z,19.38
2023-03-20T22:46:05.631Z,22.70
2023-03-20T22:48:39.106Z,19.08
2023-03-20T22:51:07.051Z,21.13
2023-03-20T22:53:34.221Z,21.95
2023-03-20T22:56:01.065Z,25.25
2023-03-20T22:58:28.052Z,22.50
2023-03-20T23:00:56.306Z,20.38
2023-03-20T23:03:39.802Z,23.05
2023-03-20T23:06:10.841Z,21.88
2023-03-20T23:08:48.034Z,23.15
2023-03-20T23:11:18.680Z,25.77
2023-03-20T23:13:46.450Z,24.77
2023-03-20T23:16:13.251Z,25.60
2023-03-20T23:18:40.156Z,23.10
2023-03-20T23:21:07.705Z,27.52
2023-03-20T23:23:34.934Z,24.77
2023-03-20T23:26:11.338Z,21.52
2023-03-20T23:28:40.061Z,20.45
2023-03-20T23:31:20.336Z,23.10
2023-03-20T23:33:56.666Z,24.20
2023-03-20T23:36:35.803Z,21.75
2023-03-20T23:39:06.158Z,19.80
2023-03-20T23:42:01.891Z,18.63
2023-03-20T23:44:20.337Z,21.52
2023-03-20T23:46:48.340Z,22.20
2023-03-20T23:49:16.814Z,19.77
2023-03-20T23:51:43.833Z,20.88
2023-03-20T23:54:11.353Z,18.70
2023-03-20T23:56:38.599Z,20.45
2023-03-20T23:59:14.908Z,22.65
